Time;durP1;ratioP1;P1;durP2;ratioP2;P2;SDS_P1;SDS_P2;PMS_P1;PMS_P2;Temp;Humidity;BMP_temperature;BMP_pressure;BME280_temperature;BME280_humidity;BME280_pressure;Samples;Min_cycle;Max_cycle;Signal;HPM_P1;HPM_P2
2021/03/16 00:00:28;;;;;;;24.92;4.43;;;8.00;99.90;;;;;;4997489;28;20030;-72
2021/03/16 00:02:53;;;;;;;38.45;5.68;;;8.00;99.90;;;;;;5003842;28;20464;-72
2021/03/16 00:05:19;;;;;;;35.30;5.78;;;8.00;99.90;;;;;;5008646;28;20034;-72
2021/03/16 00:07:44;;;;;;;29.95;4.55;;;8.00;99.90;;;;;;5036006;28;20033;-72
2021/03/16 00:10:10;;;;;;;30.70;5.13;;;8.00;99.90;;;;;;5006993;28;20080;-72
2021/03/16 00:12:36;;;;;;;30.27;5.22;;;7.90;99.90;;;;;;5004436;28;20030;-72
2021/03/16 00:15:02;;;;;;;36.15;4.88;;;7.90;99.90;;;;;;5004471;28;20544;-72
2021/03/16 00:17:28;;;;;;;31.58;4.45;;;7.90;99.90;;;;;;5007283;28;20041;-72
2021/03/16 00:19:54;;;;;;;36.63;4.63;;;8.00;99.90;;;;;;4997524;28;20018;-72
2021/03/16 00:22:20;;;;;;;29.35;5.03;;;7.90;99.90;;;;;;5006459;28;20053;-72
2021/03/16 00:24:45;;;;;;;26.08;4.22;;;8.00;99.90;;;;;;5005057;28;20022;-72
2021/03/16 00:27:11;;;;;;;28.65;4.38;;;7.90;99.90;;;;;;5013259;28;20120;-72
2021/03/16 00:29:37;;;;;;;37.17;4.40;;;7.90;99.90;;;;;;5008526;28;20030;-72
2021/03/16 00:32:03;;;;;;;33.78;4.65;;;7.80;99.90;;;;;;5006273;28;20129;-72
2021/03/16 00:34:28;;;;;;;27.38;4.78;;;7.80;99.90;;;;;;5005512;28;20034;-72
2021/03/16 00:36:54;;;;;;;23.98;3.70;;;7.80;99.90;;;;;;5011957;28;20033;-72
2021/03/16 00:39:19;;;;;;;26.60;5.45;;;7.80;99.90;;;;;;5010149;28;20048;-72
2021/03/16 00:41:45;;;;;;;39.78;5.57;;;7.80;99.90;;;;;;5007145;28;20576;-72
2021/03/16 00:44:11;;;;;;;37.47;5.65;;;7.80;99.90;;;;;;5007668;28;20069;-72
2021/03/16 00:46:36;;;;;;;24.35;4.10;;;7.80;99.90;;;;;;5014558;28;20038;-72
2021/03/16 00:49:03;;;;;;;29.40;4.38;;;7.70;99.90;;;;;;5006390;28;20390;-72
2021/03/16 00:51:29;;;;;;;28.40;4.35;;;7.80;99.90;;;;;;5010321;28;20459;-72
2021/03/16 00:53:55;;;;;;;27.60;4.45;;;7.80;99.90;;;;;;5010630;28;20033;-72
2021/03/16 00:56:21;;;;;;;26.30;4.05;;;7.80;99.90;;;;;;5007391;28;20486;-72
2021/03/16 00:58:46;;;;;;;26.42;4.45;;;7.80;99.90;;;;;;5010792;28;20084;-72
2021/03/16 01:01:12;;;;;;;23.30;4.38;;;7.90;99.90;;;;;;5011234;28;20029;-72
2021/03/16 01:03:38;;;;;;;28.23;4.32;;;7.80;99.90;;;;;;5007562;28;20467;-72
2021/03/16 01:06:04;;;;;;;31.73;4.38;;;7.80;99.90;;;;;;5006106;28;20081;-72
2021/03/16 01:08:30;;;;;;;26.58;4.78;;;7.80;99.90;;;;;;5006742;28;20421;-72
2021/03/16 01:10:56;;;;;;;21.88;3.88;;;7.80;99.90;;;;;;5007945;28;20091;-72
2021/03/16 01:13:23;;;;;;;27.83;3.75;;;7.70;99.90;;;;;;5005869;28;20026;-72
2021/03/16 01:15:49;;;;;;;22.58;3.95;;;7.80;99.90;;;;;;5002503;28;20030;-71
2021/03/16 01:18:15;;;;;;;28.00;3.35;;;7.80;99.90;;;;;;5007714;28;20049;-72
2021/03/16 01:20:41;;;;;;;24.65;4.28;;;7.80;99.90;;;;;;5007896;28;20422;-72
2021/03/16 01:23:07;;;;;;;29.63;4.13;;;7.80;99.90;;;;;;5034089;28;20029;-72
2021/03/16 01:25:33;;;;;;;30.52;4.57;;;7.80;99.90;;;;;;5010694;28;20030;-72
2021/03/16 01:27:58;;;;;;;30.10;3.47;;;7.80;99.90;;;;;;5011258;28;20038;-72
2021/03/16 01:30:25;;;;;;;28.25;4.40;;;7.80;99.90;;;;;;5009382;28;20266;-72
2021/03/16 01:32:52;;;;;;;19.65;4.07;;;7.80;99.90;;;;;;5010434;28;20045;-72
2021/03/16 01:35:18;;;;;;;23.67;3.63;;;7.80;99.90;;;;;;5011219;28;20026;-72
2021/03/16 01:37:45;;;;;;;25.63;4.30;;;7.80;99.90;;;;;;5000110;28;20018;-72
2021/03/16 01:40:15;;;;;;;26.65;3.38;;;7.90;99.90;;;;;;5007450;28;20438;-72
2021/03/16 01:42:42;;;;;;;28.48;4.47;;;7.80;99.90;;;;;;5005676;28;20029;-72
2021/03/16 01:45:14;;;;;;;25.73;3.45;;;7.80;99.90;;;;;;5003533;28;20026;-72
2021/03/16 01:47:46;;;;;;;20.08;4.13;;;7.80;99.90;;;;;;5009560;28;20375;-72
2021/03/16 01:50:13;;;;;;;26.20;4.15;;;7.70;99.90;;;;;;5009210;28;20024;-72
2021/03/16 01:52:39;;;;;;;30.65;5.05;;;7.70;99.90;;;;;;5004447;28;20030;-72
2021/03/16 01:55:06;;;;;;;20.95;3.80;;;7.70;99.90;;;;;;5002619;28;20065;-72
2021/03/16 01:57:34;;;;;;;23.98;3.92;;;7.70;99.90;;;;;;5006609;28;20483;-71
2021/03/16 02:00:00;;;;;;;24.23;3.72;;;7.60;99.90;;;;;;5043546;28;20041;-72
2021/03/16 02:02:26;;;;;;;23.00;4.13;;;7.60;99.90;;;;;;5003299;28;20050;-72
2021/03/16 02:04:52;;;;;;;29.58;4.60;;;7.60;99.90;;;;;;5005375;28;20100;-72
2021/03/16 02:07:24;;;;;;;26.45;3.70;;;7.60;99.90;;;;;;5009968;28;20494;-72
2021/03/16 02:09:56;;;;;;;28.30;4.60;;;7.70;99.90;;;;;;5009715;28;20026;-72
2021/03/16 02:12:52;;;;;;;24.92;3.88;;;7.70;99.90;;;;;;5009435;28;20029;-72
2021/03/16 02:15:23;;;;;;;39.28;4.68;;;7.70;99.90;;;;;;5006018;28;20037;-72
2021/03/16 02:17:58;;;;;;;24.42;4.07;;;7.60;99.90;;;;;;5009244;28;20402;-72
2021/03/16 02:20:42;;;;;;;21.80;3.47;;;7.60;99.90;;;;;;5011341;28;20033;-72
2021/03/16 02:23:09;;;;;;;28.52;4.07;;;7.70;99.90;;;;;;5009878;28;20533;-72
2021/03/16 02:26:11;;;;;;;31.63;4.20;;;7.70;99.90;;;;;;5008363;28;20037;-72
2021/03/16 02:29:09;;;;;;;31.83;4.43;;;7.60;99.90;;;;;;5003390;28;20037;-72
2021/03/16 02:31:38;;;;;;;25.35;3.78;;;7.70;99.90;;;;;;5007239;28;20033;-72
2021/03/16 02:34:05;;;;;;;22.90;3.85;;;7.70;99.90;;;;;;5008124;28;20383;-72
2021/03/16 02:36:32;;;;;;;32.58;5.07;;;7.80;99.90;;;;;;5008977;28;20018;-72
2021/03/16 02:39:00;;;;;;;19.73;3.53;;;7.80;99.90;;;;;;5007663;28;20040;-72
2021/03/16 02:41:27;;;;;;;30.80;3.92;;;7.80;99.90;;;;;;5007636;28;20030;-72
2021/03/16 02:43:53;;;;;;;22.50;5.03;;;7.80;99.90;;;;;;5002220;28;20498;-72
2021/03/16 02:46:20;;;;;;;23.42;4.63;;;7.80;99.90;;;;;;5005229;28;20252;-72
2021/03/16 02:48:47;;;;;;;23.80;4.80;;;7.80;99.90;;;;;;5007546;28;20025;-72
2021/03/16 02:51:14;;;;;;;28.40;4.50;;;7.80;99.90;;;;;;5010052;28;20049;-72
2021/03/16 02:53:41;;;;;;;26.90;3.65;;;7.80;99.90;;;;;;5003227;28;20153;-72
2021/03/16 02:56:07;;;;;;;24.33;4.20;;;7.90;99.90;;;;;;5003240;28;20112;-72
2021/03/16 02:58:34;;;;;;;21.52;4.03;;;7.80;99.90;;;;;;5006568;28;20061;-72
2021/03/16 03:01:01;;;;;;;30.63;5.18;;;7.90;99.90;;;;;;5004847;28;20064;-72
2021/03/16 03:03:29;;;;;;;15.57;3.88;;;7.90;99.90;;;;;;5000740;28;20045;-72
2021/03/16 03:05:56;;;;;;;38.63;6.82;;;7.90;99.90;;;;;;5003478;28;20038;-72
2021/03/16 03:08:23;;;;;;;23.90;4.80;;;7.90;99.90;;;;;;5006250;28;20080;-72
2021/03/16 03:10:49;;;;;;;24.88;3.47;;;7.80;99.90;;;;;;5000997;28;20380;-72
2021/03/16 03:13:15;;;;;;;25.52;4.55;;;7.80;99.90;;;;;;5001294;28;20513;-72
2021/03/16 03:15:41;;;;;;;29.80;4.85;;;7.80;99.90;;;;;;5002276;28;20034;-72
2021/03/16 03:18:07;;;;;;;28.02;5.05;;;7.70;99.90;;;;;;5007045;28;20022;-72
2021/03/16 03:20:37;;;;;;;34.13;4.80;;;7.70;99.90;;;;;;5011625;28;20030;-72
2021/03/16 03:23:21;;;;;;;29.15;5.10;;;7.80;99.90;;;;;;4995100;28;20081;-72
2021/03/16 03:25:55;;;;;;;31.40;5.25;;;7.80;99.90;;;;;;5004159;28;20038;-72
2021/03/16 03:28:30;;;;;;;34.80;5.43;;;7.80;99.90;;;;;;5002009;28;20116;-72
2021/03/16 03:31:00;;;;;;;30.05;5.90;;;7.80;99.90;;;;;;5005737;28;20034;-72
2021/03/16 03:33:26;;;;;;;26.58;5.20;;;7.80;99.90;;;;;;5007801;28;20955;-72
2021/03/16 03:35:54;;;;;;;28.45;6.00;;;7.70;99.90;;;;;;5002949;28;20387;-72
2021/03/16 03:38:21;;;;;;;26.85;5.78;;;7.70;99.90;;;;;;5003182;28;20017;-72
2021/03/16 03:40:49;;;;;;;32.63;5.85;;;7.80;99.90;;;;;;5002070;28;20029;-72
2021/03/16 03:43:18;;;;;;;25.58;5.95;;;7.80;99.90;;;;;;5005221;28;20382;-72
2021/03/16 03:45:45;;;;;;;27.13;5.90;;;7.80;99.90;;;;;;4996945;28;20046;-72
2021/03/16 03:48:13;;;;;;;40.95;8.05;;;7.80;99.90;;;;;;5006012;28;20115;-72
2021/03/16 03:50:40;;;;;;;29.35;6.13;;;7.70;99.90;;;;;;5007236;28;20060;-72
2021/03/16 03:53:08;;;;;;;24.95;5.40;;;7.80;99.90;;;;;;5007515;28;20033;-72
2021/03/16 03:55:35;;;;;;;25.15;4.97;;;7.70;99.90;;;;;;4999846;28;20102;-72
2021/03/16 03:58:03;;;;;;;33.38;5.65;;;7.80;99.90;;;;;;5002026;28;20022;-72
2021/03/16 04:00:30;;;;;;;27.05;5.22;;;7.70;99.90;;;;;;5002662;28;20030;-72
2021/03/16 04:02:57;;;;;;;30.02;5.68;;;7.60;99.90;;;;;;5009043;28;20053;-72
2021/03/16 04:05:22;;;;;;;24.55;5.75;;;7.60;99.90;;;;;;5011283;28;20030;-72
2021/03/16 04:07:49;;;;;;;27.63;6.47;;;7.60;99.90;;;;;;5012877;28;20033;-72
2021/03/16 04:10:16;;;;;;;26.85;6.25;;;7.60;99.90;;;;;;5039781;28;20022;-72
2021/03/16 04:12:42;;;;;;;23.77;6.03;;;7.70;99.90;;;;;;5010296;28;20069;-72
2021/03/16 04:15:15;;;;;;;32.30;6.20;;;7.70;99.90;;;;;;5008375;28;20487;-71
2021/03/16 04:17:42;;;;;;;27.88;5.60;;;7.70;99.90;;;;;;5010048;28;20034;-72
2021/03/16 04:20:09;;;;;;;32.35;6.32;;;7.70;99.90;;;;;;5005520;28;20023;-72
2021/03/16 04:22:36;;;;;;;25.35;6.50;;;7.70;99.90;;;;;;5010591;28;20060;-72
2021/03/16 04:25:03;;;;;;;36.33;5.57;;;7.80;99.90;;;;;;5004859;28;20022;-72
2021/03/16 04:27:28;;;;;;;34.47;8.38;;;7.70;99.90;;;;;;5010951;28;20088;-72
2021/03/16 04:29:54;;;;;;;30.30;6.32;;;7.70;99.90;;;;;;5009191;28;20034;-72
2021/03/16 04:32:20;;;;;;;26.00;6.35;;;7.60;99.90;;;;;;5001729;28;20113;-72
2021/03/16 04:34:46;;;;;;;32.47;6.32;;;7.60;99.90;;;;;;5007027;28;20018;-72
2021/03/16 04:37:12;;;;;;;30.13;6.60;;;7.60;99.90;;;;;;5009142;28;20485;-72
2021/03/16 04:39:38;;;;;;;35.28;7.30;;;7.50;99.90;;;;;;5006056;28;20393;-72
2021/03/16 04:42:03;;;;;;;36.45;7.07;;;7.60;99.90;;;;;;5001270;28;20438;-72
2021/03/16 04:44:29;;;;;;;34.40;7.57;;;7.60;99.90;;;;;;5011490;28;20517;-72
2021/03/16 04:46:55;;;;;;;34.13;7.85;;;7.60;99.90;;;;;;5000951;28;20038;-72
2021/03/16 04:49:21;;;;;;;34.97;6.95;;;7.60;99.90;;;;;;5007561;28;20036;-72
2021/03/16 04:51:47;;;;;;;29.65;6.88;;;7.50;99.90;;;;;;5010633;28;20026;-72
2021/03/16 04:54:12;;;;;;;28.30;6.35;;;7.50;99.90;;;;;;5007833;28;20026;-72
2021/03/16 04:56:38;;;;;;;31.13;7.05;;;7.50;99.90;;;;;;5008892;28;20070;-72
2021/03/16 04:59:04;;;;;;;38.58;7.43;;;7.50;99.90;;;;;;5008889;28;20412;-72
2021/03/16 05:01:30;;;;;;;35.50;7.47;;;7.50;99.90;;;;;;5009690;28;20037;-72
2021/03/16 05:03:56;;;;;;;27.92;7.03;;;7.50;99.90;;;;;;5011224;28;20093;-72
2021/03/16 05:06:22;;;;;;;33.83;7.18;;;7.50;99.90;;;;;;5007681;28;20550;-72
2021/03/16 05:08:47;;;;;;;34.88;7.80;;;7.50;99.90;;;;;;5003083;28;20030;-72
2021/03/16 05:11:13;;;;;;;35.50;7.63;;;7.50;99.90;;;;;;5001726;28;20407;-72
2021/03/16 05:13:39;;;;;;;27.92;6.85;;;7.60;99.90;;;;;;5004299;28;20048;-72
2021/03/16 05:16:05;;;;;;;33.55;6.93;;;7.60;99.90;;;;;;5009267;28;20026;-72
2021/03/16 05:18:30;;;;;;;28.75;6.32;;;7.50;99.90;;;;;;5003425;28;20489;-72
2021/03/16 05:20:56;;;;;;;30.38;6.65;;;7.50;99.90;;;;;;5000210;28;20470;-72
2021/03/16 05:23:22;;;;;;;31.77;7.38;;;7.50;99.90;;;;;;5006045;28;20552;-72
2021/03/16 05:25:47;;;;;;;28.20;6.90;;;7.50;99.90;;;;;;5010495;28;20049;-72
2021/03/16 05:28:13;;;;;;;31.45;6.40;;;7.40;99.90;;;;;;5000011;28;20026;-72
2021/03/16 05:30:39;;;;;;;25.17;6.22;;;7.50;99.90;;;;;;5034399;28;20034;-71
2021/03/16 05:33:05;;;;;;;29.42;6.07;;;7.50;99.90;;;;;;5010157;28;20029;-71
2021/03/16 05:35:30;;;;;;;32.33;7.30;;;7.50;99.90;;;;;;5006097;28;20046;-72
2021/03/16 05:37:57;;;;;;;25.85;5.38;;;7.50;99.90;;;;;;4998936;28;20026;-72
2021/03/16 05:40:23;;;;;;;29.17;5.95;;;7.50;99.90;;;;;;5007016;28;20046;-72
2021/03/16 05:42:51;;;;;;;32.88;4.82;;;7.50;99.90;;;;;;5010388;28;20033;-72
2021/03/16 05:45:17;;;;;;;27.73;5.20;;;7.50;99.90;;;;;;5009808;28;20033;-72
2021/03/16 05:47:46;;;;;;;29.48;4.57;;;7.50;99.90;;;;;;5003127;28;20140;-72
2021/03/16 05:50:12;;;;;;;27.80;5.40;;;7.50;99.90;;;;;;4998850;28;20057;-71
2021/03/16 05:52:38;;;;;;;28.67;5.80;;;7.50;99.90;;;;;;5005335;28;20081;-72
2021/03/16 05:55:07;;;;;;;31.33;5.93;;;7.50;99.90;;;;;;5003137;28;20014;-72
2021/03/16 05:57:32;;;;;;;24.92;5.45;;;7.50;99.90;;;;;;5007786;28;20042;-71
2021/03/16 05:59:58;;;;;;;23.45;4.93;;;7.50;99.90;;;;;;5009732;28;20129;-72
2021/03/16 06:02:25;;;;;;;31.00;5.78;;;7.50;99.90;;;;;;5001968;28;20029;-72
2021/03/16 06:04:50;;;;;;;30.05;5.70;;;7.50;99.90;;;;;;5008266;28;20406;-72
2021/03/16 06:07:16;;;;;;;31.75;6.47;;;7.50;99.90;;;;;;5006255;28;20034;-72
2021/03/16 06:09:43;;;;;;;26.08;5.28;;;7.50;99.90;;;;;;5009725;28;20057;-72
2021/03/16 06:12:10;;;;;;;35.33;6.20;;;7.50;99.90;;;;;;4997364;28;20072;-73
2021/03/16 06:14:37;;;;;;;37.92;6.53;;;7.60;99.90;;;;;;5003327;28;20026;-72
2021/03/16 06:17:03;;;;;;;26.27;5.57;;;7.60;99.90;;;;;;4999713;28;20049;-70
2021/03/16 06:19:31;;;;;;;31.73;5.88;;;7.60;99.90;;;;;;5005307;28;20084;-72
2021/03/16 06:22:01;;;;;;;28.48;4.95;;;7.70;99.90;;;;;;5001561;28;20022;-72
2021/03/16 06:24:28;;;;;;;29.23;5.75;;;7.70;99.90;;;;;;5037956;28;20038;-72
2021/03/16 06:26:54;;;;;;;28.83;5.13;;;7.70;99.90;;;;;;4997006;28;20061;-72
2021/03/16 06:29:20;;;;;;;29.85;5.93;;;7.70;99.90;;;;;;5003365;28;20058;-72
2021/03/16 06:31:46;;;;;;;25.73;6.28;;;7.70;99.90;;;;;;5001785;28;20030;-72
2021/03/16 06:34:23;;;;;;;26.98;5.50;;;7.80;99.90;;;;;;5004404;28;20037;-72
2021/03/16 06:36:57;;;;;;;28.52;6.03;;;7.70;99.90;;;;;;5007662;28;20471;-72
2021/03/16 06:39:24;;;;;;;29.73;6.57;;;7.70;99.90;;;;;;5008811;28;20022;-72
2021/03/16 06:41:50;;;;;;;36.10;5.95;;;7.80;99.90;;;;;;5000922;28;20359;-72
2021/03/16 06:44:17;;;;;;;24.80;4.90;;;7.90;99.90;;;;;;5005092;28;20024;-72
2021/03/16 06:46:50;;;;;;;34.28;6.25;;;7.90;99.90;;;;;;5000987;28;20034;-72
2021/03/16 06:49:19;;;;;;;26.25;6.03;;;7.90;99.90;;;;;;5004210;28;20031;-72
2021/03/16 06:51:46;;;;;;;28.15;6.70;;;7.90;99.90;;;;;;5004938;28;20034;-72
2021/03/16 06:54:13;;;;;;;26.13;5.75;;;8.00;99.90;;;;;;5002953;28;20125;-72
2021/03/16 06:56:39;;;;;;;29.05;5.78;;;7.90;99.90;;;;;;5008027;28;20111;-72
2021/03/16 06:59:06;;;;;;;29.55;6.75;;;7.90;99.90;;;;;;5001240;28;20491;-72
2021/03/16 07:01:33;;;;;;;33.40;6.90;;;8.00;99.90;;;;;;5005648;28;20030;-72
2021/03/16 07:04:15;;;;;;;26.02;5.80;;;8.10;99.90;;;;;;5009518;28;20467;-72
2021/03/16 07:06:42;;;;;;;30.83;6.35;;;8.00;99.90;;;;;;4999813;28;20044;-72
2021/03/16 07:09:11;;;;;;;22.85;5.95;;;8.00;99.90;;;;;;5001686;28;20034;-72
2021/03/16 07:11:39;;;;;;;31.80;6.95;;;8.00;99.90;;;;;;5005319;28;20038;-73
2021/03/16 07:14:05;;;;;;;38.78;8.20;;;7.90;99.90;;;;;;5001741;28;20100;-74
2021/03/16 07:16:32;;;;;;;32.03;6.32;;;8.00;99.90;;;;;;5004897;28;20032;-73
2021/03/16 07:19:02;;;;;;;27.70;7.18;;;8.00;99.90;;;;;;5001160;28;20053;-72
2021/03/16 07:21:29;;;;;;;33.72;8.05;;;8.10;99.90;;;;;;5002303;28;20038;-72
2021/03/16 07:23:59;;;;;;;30.85;7.07;;;8.10;99.90;;;;;;5002463;28;20026;-72
2021/03/16 07:26:26;;;;;;;34.50;7.80;;;8.20;99.90;;;;;;5001391;28;20050;-73
2021/03/16 07:28:52;;;;;;;34.55;7.60;;;8.30;99.90;;;;;;5000791;28;20081;-72
2021/03/16 07:31:18;;;;;;;33.05;8.30;;;8.30;99.90;;;;;;4998295;28;20042;-73
2021/03/16 07:33:44;;;;;;;33.00;7.28;;;8.40;99.90;;;;;;4999509;28;20544;-72
2021/03/16 07:36:10;;;;;;;38.35;6.97;;;8.30;99.90;;;;;;5002015;28;20033;-72
2021/03/16 07:38:38;;;;;;;30.27;7.00;;;8.30;99.90;;;;;;5004189;28;20026;-72
2021/03/16 07:41:04;;;;;;;34.60;8.55;;;8.30;99.90;;;;;;5039611;28;20027;-72
2021/03/16 07:43:40;;;;;;;34.55;7.85;;;8.40;99.90;;;;;;5009479;28;20478;-72
2021/03/16 07:46:13;;;;;;;30.17;7.55;;;8.30;99.90;;;;;;5003926;28;20038;-71
2021/03/16 07:48:53;;;;;;;30.63;7.93;;;8.40;99.90;;;;;;5003034;28;20483;-72
2021/03/16 07:51:20;;;;;;;36.90;7.28;;;8.40;99.90;;;;;;5009085;28;20037;-73
2021/03/16 07:53:57;;;;;;;36.60;9.52;;;8.40;99.90;;;;;;5007136;28;20058;-73
2021/03/16 07:56:28;;;;;;;40.22;7.53;;;8.50;99.90;;;;;;5006684;28;20082;-73
2021/03/16 07:58:54;;;;;;;30.35;9.40;;;8.50;99.90;;;;;;5004416;28;20510;-73
2021/03/16 08:01:20;;;;;;;32.50;9.25;;;8.60;99.90;;;;;;5001955;28;20026;-72
2021/03/16 08:03:46;;;;;;;33.28;7.85;;;8.60;99.90;;;;;;5009978;28;20038;-73
2021/03/16 08:06:25;;;;;;;28.33;7.65;;;8.70;99.90;;;;;;5002322;28;20387;-73
2021/03/16 08:08:52;;;;;;;31.05;7.22;;;8.60;99.90;;;;;;5005960;28;20030;-72
2021/03/16 08:11:18;;;;;;;34.10;7.72;;;8.60;99.90;;;;;;5005192;28;20091;-73
2021/03/16 08:14:10;;;;;;;28.40;7.88;;;8.60;99.90;;;;;;5009726;28;20467;-72
2021/03/16 08:16:37;;;;;;;28.43;8.20;;;8.60;99.90;;;;;;5008675;28;20157;-72
2021/03/16 08:19:18;;;;;;;36.30;9.70;;;8.70;99.90;;;;;;4999237;28;20450;-72
2021/03/16 08:21:45;;;;;;;32.72;8.30;;;8.70;99.90;;;;;;5002260;28;20042;-73
2021/03/16 08:24:12;;;;;;;34.95;8.07;;;8.70;99.90;;;;;;5010008;28;20034;-70
2021/03/16 08:26:49;;;;;;;35.28;9.35;;;8.80;99.90;;;;;;5006426;28;20023;-71
2021/03/16 08:29:15;;;;;;;39.08;9.98;;;8.80;99.90;;;;;;4999947;28;20104;-70
2021/03/16 08:31:41;;;;;;;34.05;8.48;;;8.80;99.90;;;;;;5006328;28;20176;-71
2021/03/16 08:34:08;;;;;;;25.70;7.88;;;8.70;99.90;;;;;;5003070;28;20117;-70
2021/03/16 08:36:43;;;;;;;32.00;8.55;;;8.70;99.90;;;;;;5001051;28;20084;-71
2021/03/16 08:39:25;;;;;;;35.58;9.48;;;8.90;99.90;;;;;;5003603;28;20018;-71
2021/03/16 08:41:55;;;;;;;30.93;8.43;;;8.80;99.90;;;;;;5006610;28;20394;-71
2021/03/16 08:44:21;;;;;;;25.23;7.70;;;8.90;99.90;;;;;;5004177;28;20051;-71
2021/03/16 08:46:47;;;;;;;33.78;9.90;;;8.80;99.90;;;;;;5007451;28;20471;-71
2021/03/16 08:49:19;;;;;;;24.75;8.73;;;8.80;99.90;;;;;;5005575;28;20018;-70
2021/03/16 08:51:45;;;;;;;;;;;8.80;99.90;;;;;;5005032;28;20389;-71
2021/03/16 08:54:21;;;;;;;25.85;8.93;;;8.80;99.90;;;;;;5006544;28;19959;-71
2021/03/16 08:56:48;;;;;;;27.88;9.27;;;8.90;99.90;;;;;;5007290;28;20018;-71
2021/03/16 08:59:14;;;;;;;31.25;8.63;;;9.00;99.90;;;;;;4979226;28;20571;-71
2021/03/16 09:01:49;;;;;;;30.42;8.35;;;9.00;99.90;;;;;;5002376;28;20033;-71
2021/03/16 09:04:16;;;;;;;26.77;8.55;;;9.00;99.90;;;;;;5005342;28;20065;-70
2021/03/16 09:06:42;;;;;;;32.15;7.90;;;8.90;99.90;;;;;;5005955;28;20046;-71
2021/03/16 09:09:10;;;;;;;26.58;8.98;;;9.00;99.90;;;;;;5005886;28;20033;-70
2021/03/16 09:11:43;;;;;;;35.97;9.40;;;9.00;99.90;;;;;;5001359;28;20025;-71
2021/03/16 09:14:17;;;;;;;30.08;7.50;;;9.00;99.90;;;;;;5006179;28;20112;-71
2021/03/16 09:16:50;;;;;;;16.92;5.40;;;9.10;99.90;;;;;;5003592;28;20025;-70
2021/03/16 09:19:26;;;;;;;17.00;5.30;;;9.20;99.90;;;;;;5003306;28;20036;-71
2021/03/16 09:21:53;;;;;;;17.98;6.20;;;9.20;99.90;;;;;;5005978;28;20060;-71
2021/03/16 09:24:25;;;;;;;18.90;6.13;;;9.20;99.90;;;;;;5003231;28;20023;-70
2021/03/16 09:26:59;;;;;;;23.30;6.70;;;9.20;99.90;;;;;;5004257;28;20026;-71
2021/03/16 09:29:32;;;;;;;17.50;6.25;;;9.30;99.90;;;;;;4996829;28;20026;-71
2021/03/16 09:32:00;;;;;;;25.77;6.30;;;9.20;99.90;;;;;;5002461;28;20052;-70
2021/03/16 09:34:27;;;;;;;17.73;5.68;;;9.20;99.90;;;;;;5008229;28;20030;-70
2021/03/16 09:37:16;;;;;;;13.57;5.93;;;9.30;99.90;;;;;;5003838;28;20036;-70
2021/03/16 09:39:56;;;;;;;13.90;4.85;;;9.50;99.90;;;;;;5001827;28;20453;-70
2021/03/16 09:42:38;;;;;;;8.73;3.20;;;9.50;99.90;;;;;;5002992;28;20048;-71
2021/03/16 09:45:14;;;;;;;6.95;2.42;;;9.50;99.90;;;;;;5000268;28;20065;-71
2021/03/16 09:47:40;;;;;;;8.25;2.47;;;9.50;99.90;;;;;;5004618;28;20038;-72
2021/03/16 09:50:15;;;;;;;8.13;1.80;;;9.50;99.90;;;;;;5002803;28;20109;-72
2021/03/16 09:52:42;;;;;;;4.85;1.55;;;9.50;99.90;;;;;;5003682;28;20030;-73
2021/03/16 09:55:08;;;;;;;4.25;1.33;;;9.40;99.90;;;;;;5003355;28;20092;-72
2021/03/16 09:57:37;;;;;;;3.20;1.58;;;9.10;99.90;;;;;;5001107;28;20084;-72
2021/03/16 10:00:12;;;;;;;2.95;1.02;;;9.10;99.90;;;;;;5000398;28;20057;-72
2021/03/16 10:02:40;;;;;;;3.03;1.40;;;9.10;99.90;;;;;;5004269;28;20034;-72
2021/03/16 10:05:10;;;;;;;3.28;1.10;;;9.10;99.90;;;;;;5003813;28;20033;-71
2021/03/16 10:07:37;;;;;;;6.47;1.75;;;9.00;99.90;;;;;;5004736;28;20073;-71
2021/03/16 10:10:15;;;;;;;6.18;1.50;;;8.80;99.90;;;;;;5001893;28;20036;-71
2021/03/16 10:12:54;;;;;;;3.20;1.30;;;8.90;99.90;;;;;;5002505;28;20022;-70
2021/03/16 10:15:41;;;;;;;5.03;1.40;;;8.80;99.90;;;;;;4994453;28;20042;-71
2021/03/16 10:18:09;;;;;;;6.47;1.50;;;8.70;99.90;;;;;;5003567;28;20560;-69
2021/03/16 10:20:41;;;;;;;5.03;1.98;;;8.70;99.90;;;;;;5006517;28;20030;-69
2021/03/16 10:23:17;;;;;;;4.70;2.03;;;8.80;99.90;;;;;;4998617;28;20383;-69
2021/03/16 10:25:42;;;;;;;4.97;1.70;;;8.80;99.90;;;;;;5004878;28;20371;-72
2021/03/16 10:28:10;;;;;;;5.43;2.25;;;8.90;99.90;;;;;;5001178;28;20088;-71
2021/03/16 10:30:42;;;;;;;9.20;2.25;;;8.90;99.90;;;;;;5027627;28;20022;-72
2021/03/16 10:33:09;;;;;;;4.35;1.75;;;8.80;99.90;;;;;;5031773;28;20030;-69
2021/03/16 10:35:37;;;;;;;2.33;1.30;;;8.80;99.90;;;;;;4998175;28;20026;-70
2021/03/16 10:38:04;;;;;;;3.80;1.33;;;8.80;99.90;;;;;;5002886;28;20123;-70
2021/03/16 10:40:34;;;;;;;5.25;1.38;;;8.90;99.90;;;;;;5006089;28;20038;-71
2021/03/16 10:43:00;;;;;;;4.10;1.20;;;8.90;99.90;;;;;;4997119;28;20010;-70
2021/03/16 10:45:27;;;;;;;2.05;1.35;;;8.90;99.90;;;;;;5001512;28;20044;-70
2021/03/16 10:47:53;;;;;;;3.65;1.40;;;8.90;99.90;;;;;;4999739;28;20089;-70
2021/03/16 10:50:19;;;;;;;2.58;1.20;;;8.90;99.90;;;;;;4997503;28;20081;-70
2021/03/16 10:52:45;;;;;;;3.28;1.35;;;8.80;99.90;;;;;;5000611;28;20021;-70
2021/03/16 10:55:11;;;;;;;4.78;1.10;;;8.80;99.90;;;;;;5003859;28;20018;-70
2021/03/16 10:57:36;;;;;;;4.65;1.10;;;8.90;99.90;;;;;;4995409;28;20611;-70
2021/03/16 11:00:09;;;;;;;1.60;0.75;;;8.90;99.90;;;;;;5002728;28;20038;-70
2021/03/16 11:02:35;;;;;;;1.63;0.98;;;8.90;99.90;;;;;;4999749;28;20157;-71
2021/03/16 11:05:01;;;;;;;6.28;1.55;;;8.90;99.90;;;;;;5004664;28;20112;-72
2021/03/16 11:07:27;;;;;;;7.22;2.00;;;9.00;99.90;;;;;;5008584;28;20049;-71
2021/03/16 11:09:52;;;;;;;5.30;1.95;;;9.00;99.90;;;;;;5007798;28;20029;-72
2021/03/16 11:12:18;;;;;;;5.43;1.88;;;9.00;99.90;;;;;;5005895;28;20044;-72
2021/03/16 11:14:45;;;;;;;3.53;1.85;;;8.90;99.90;;;;;;5004993;28;20433;-70
2021/03/16 11:17:11;;;;;;;6.15;2.22;;;9.00;99.90;;;;;;5001863;28;20027;-72
2021/03/16 11:19:37;;;;;;;5.88;2.17;;;9.00;99.90;;;;;;5006299;28;20036;-72
2021/03/16 11:22:03;;;;;;;7.22;2.72;;;8.90;99.90;;;;;;5008292;28;20089;-72
2021/03/16 11:24:28;;;;;;;8.70;2.75;;;8.80;99.90;;;;;;5005071;28;20164;-72
2021/03/16 11:26:54;;;;;;;4.10;2.15;;;8.80;99.90;;;;;;5033162;28;20125;-72
2021/03/16 11:29:20;;;;;;;9.07;2.78;;;8.90;99.90;;;;;;5003111;28;20035;-71
2021/03/16 11:31:45;;;;;;;3.10;1.15;;;8.90;99.90;;;;;;5000781;28;20505;-72
2021/03/16 11:34:11;;;;;;;3.80;1.80;;;8.90;99.90;;;;;;5006993;28;20534;-72
2021/03/16 11:36:37;;;;;;;3.72;0.98;;;9.00;99.90;;;;;;5004937;28;20040;-71
2021/03/16 11:39:03;;;;;;;4.13;1.30;;;9.00;99.90;;;;;;5001843;28;20105;-72
2021/03/16 11:41:29;;;;;;;3.55;1.60;;;9.00;99.90;;;;;;5003282;28;20030;-71
2021/03/16 11:43:54;;;;;;;2.70;1.27;;;9.00;99.90;;;;;;5001090;28;20489;-72
2021/03/16 11:46:20;;;;;;;4.18;1.52;;;9.10;99.90;;;;;;4999864;28;20042;-72
2021/03/16 11:48:45;;;;;;;3.00;1.50;;;9.00;99.90;;;;;;5001117;28;20026;-72
2021/03/16 11:51:11;;;;;;;3.95;1.85;;;9.00;99.90;;;;;;5000154;28;20030;-72
2021/03/16 11:53:37;;;;;;;3.55;1.60;;;9.00;99.90;;;;;;4997325;28;20036;-72
2021/03/16 11:56:03;;;;;;;5.00;1.70;;;8.90;99.90;;;;;;5003621;28;20030;-72
2021/03/16 11:58:29;;;;;;;5.35;2.50;;;9.00;99.90;;;;;;5004050;28;20398;-72
2021/03/16 12:00:55;;;;;;;2.85;1.92;;;9.00;99.90;;;;;;5007988;28;20025;-71
2021/03/16 12:03:20;;;;;;;7.13;2.38;;;9.00;99.90;;;;;;4999143;28;20077;-72
2021/03/16 12:05:46;;;;;;;4.88;2.15;;;9.10;99.90;;;;;;5001921;28;20066;-71
2021/03/16 12:08:12;;;;;;;3.40;2.63;;;9.20;99.90;;;;;;4998657;28;20045;-72
2021/03/16 12:10:38;;;;;;;6.18;1.75;;;9.20;99.90;;;;;;4996501;28;20034;-72
2021/03/16 12:13:04;;;;;;;3.97;1.08;;;9.20;99.90;;;;;;5004412;28;20041;-72
2021/03/16 12:15:29;;;;;;;6.60;1.35;;;9.20;99.90;;;;;;4998667;28;20022;-72
2021/03/16 12:17:55;;;;;;;6.97;1.40;;;9.30;99.90;;;;;;5007486;28;20386;-72
2021/03/16 12:20:21;;;;;;;2.90;1.45;;;9.20;99.90;;;;;;5003728;28;20018;-72
2021/03/16 12:22:46;;;;;;;3.80;0.93;;;9.30;99.90;;;;;;5001853;28;20045;-71
2021/03/16 12:25:12;;;;;;;3.80;0.95;;;9.40;99.90;;;;;;5001919;28;20105;-72
2021/03/16 12:27:38;;;;;;;4.13;1.20;;;9.40;99.90;;;;;;5004782;28;20044;-73
2021/03/16 12:30:07;;;;;;;2.70;1.60;;;9.30;99.90;;;;;;5008004;28;20410;-72
2021/03/16 12:32:38;;;;;;;6.85;1.55;;;9.20;99.90;;;;;;5007862;28;20540;-72
2021/03/16 12:35:08;;;;;;;2.85;1.88;;;9.30;99.90;;;;;;5007679;28;20029;-71
2021/03/16 12:37:34;;;;;;;6.10;1.75;;;9.30;99.90;;;;;;5007872;28;20072;-71
2021/03/16 12:40:03;;;;;;;8.75;2.28;;;9.30;99.90;;;;;;5004877;28;20121;-72
2021/03/16 12:42:29;;;;;;;7.63;2.42;;;9.40;99.90;;;;;;5003600;28;20037;-72
2021/03/16 12:44:55;;;;;;;3.55;1.45;;;9.30;99.90;;;;;;5002021;28;20026;-73
2021/03/16 12:47:21;;;;;;;6.32;1.90;;;9.20;99.90;;;;;;5011433;28;20032;-72
2021/03/16 12:49:46;;;;;;;3.70;1.80;;;9.20;99.90;;;;;;5010271;28;20025;-72
2021/03/16 12:52:12;;;;;;;3.97;1.98;;;9.30;99.90;;;;;;5009372;28;20056;-72
2021/03/16 12:54:37;;;;;;;7.93;2.00;;;9.40;99.90;;;;;;5002075;28;20117;-72